Hull, Illinois
Current Conditions -  °F | °C
As of 11:54 AM on Monday 24 Nov 2014 (Local Time) from KUIN Reporting Station
Overcast Overcast  
Wind Chill: 22°   Ceiling: 2700
Heat Index: 33°   Visibility: 10mi
Dew Point: 24°   Wind: 20mph
Humidity: 70%   Direction: 280°W
Pressure: 29.61"   Gusts: 29mph
Location:  39.71°N, 91.21°W
Report Text: KUIN 241754Z AUTO 28017G25KT 10SM OVC027 01/M04 A2961 RMK AO2 PK WND 26027/1731 SLP032 T00061044 10011 21006 51026
Loading
Personal Weather Stations






























Interactive Weather Map New forecast layout! Learn more

10-Day Weather Forecast

Advertisements
Track Severe Weather on mobile